Time;durP1;ratioP1;P1;durP2;ratioP2;P2;SDS_P1;SDS_P2;PMS_P1;PMS_P2;Temp;Humidity;BMP_temperature;BMP_pressure;BME280_temperature;BME280_humidity;BME280_pressure;Samples;Min_cycle;Max_cycle;Signal;HPM_P1;HPM_P2
2022/02/01 00:02:04;;;;;;;5.78;2.55;;;;;;;-2.22;74.96;98609.86;1730778;81;21145;-64
2022/02/01 00:04:41;;;;;;;7.80;2.42;;;;;;;-2.25;74.89;98613.30;1720477;83;21545;-64
2022/02/01 00:36:05;;;;;;;7.25;2.58;;;;;;;-2.58;75.03;98638.41;1753467;81;21510;-64
2022/02/01 00:38:52;;;;;;;7.70;3.05;;;;;;;-2.57;75.09;98637.57;1749149;81;21005;-63
2022/02/01 00:41:11;;;;;;;5.20;2.15;;;;;;;-2.56;75.12;98641.80;1763724;80;21138;-65
2022/02/01 00:43:37;;;;;;;8.18;2.30;;;;;;;-2.56;75.10;98646.91;1773100;78;21538;-64
2022/02/01 00:46:04;;;;;;;6.12;2.30;;;;;;;-2.55;75.09;98656.30;1783616;80;21149;-65
2022/02/01 00:48:31;;;;;;;3.80;1.80;;;;;;;-2.55;75.08;98651.19;1781917;78;21567;-65
2022/02/01 00:50:58;;;;;;;;;;;;;;;-2.54;75.13;98655.42;1774623;80;21550;-65
2022/02/01 00:53:31;;;;;;;4.47;1.72;;;;;;;-2.51;75.15;98659.22;1749355;80;20116;-64
2022/02/01 00:55:57;;;;;;;3.98;1.52;;;;;;;-2.50;75.17;98659.62;1775784;80;20962;-64
2022/02/01 00:58:25;;;;;;;4.75;1.98;;;;;;;-2.48;75.18;98656.62;1795853;79;21680;-64
2022/02/01 01:00:52;;;;;;;2.50;1.25;;;;;;;-2.45;75.19;98661.29;1782254;79;21521;-64
2022/02/01 01:03:18;;;;;;;3.17;1.60;;;;;;;-2.42;75.21;98662.53;1769187;79;20966;-64
2022/02/01 01:05:47;;;;;;;3.83;1.60;;;;;;;-2.39;75.20;98671.44;1802329;78;20953;-64
2022/02/01 01:08:13;;;;;;;1.85;1.10;;;;;;;-2.39;75.19;98668.88;1768891;78;21012;-64
2022/02/01 01:10:41;;;;;;;7.80;1.50;;;;;;;-2.37;75.21;98660.77;1780749;78;20977;-64
2022/02/01 01:15:40;;;;;;;4.47;1.60;;;;;;;-2.39;75.17;98664.61;1787041;78;21511;-65
2022/02/01 01:54:02;;;;;;;8.68;1.27;;;;;;;-2.63;75.44;98621.03;1749448;81;21025;-63
2022/02/01 01:56:34;;;;;;;2.08;1.00;;;;;;;-2.66;75.44;98617.24;1729504;81;20969;-63
2022/02/01 01:59:04;;;;;;;4.35;1.70;;;;;;;-2.68;75.44;98615.56;1721953;81;21654;-64
2022/02/01 02:01:33;;;;;;;3.25;1.40;;;;;;;-2.73;75.47;98600.28;1730197;82;21057;-64
2022/02/01 02:04:00;;;;;;;5.15;2.02;;;;;;;-2.77;75.47;98599.91;1706423;82;21116;-64
2022/02/01 02:06:32;;;;;;;5.28;2.20;;;;;;;-2.81;75.50;98602.07;1717384;82;21596;-64
2022/02/01 02:09:02;;;;;;;7.45;1.50;;;;;;;-2.86;75.46;98596.16;1710181;83;21558;-64
2022/02/01 02:11:41;;;;;;;6.70;1.87;;;;;;;-2.93;75.51;98593.69;1700543;83;21028;-64
2022/02/01 02:14:20;;;;;;;4.15;1.82;;;;;;;-2.97;75.58;98589.48;1709096;83;21074;-64
2022/02/01 02:16:58;;;;;;;5.12;1.77;;;;;;;-2.98;75.71;98587.77;1702108;82;21149;-64
2022/02/01 02:19:28;;;;;;;4.37;2.30;;;;;;;-2.96;75.82;98588.61;1707307;83;21160;-64
2022/02/01 02:22:01;;;;;;;3.92;1.52;;;;;;;-2.93;75.90;98583.47;1706490;82;21046;-64
2022/02/01 02:24:34;;;;;;;5.10;2.17;;;;;;;-2.87;75.88;98586.82;1711856;82;21568;-64
2022/02/01 02:27:01;;;;;;;6.17;2.50;;;;;;;-2.88;75.74;98581.31;1717119;82;21000;-64
2022/02/01 02:29:29;;;;;;;5.20;2.35;;;;;;;-2.94;75.71;98583.06;1756169;80;21028;-65
2022/02/01 02:31:56;;;;;;;5.78;2.20;;;;;;;-3.00;75.70;98576.72;1775607;79;21000;-64
2022/02/01 02:34:24;;;;;;;5.78;2.62;;;;;;;-3.03;75.77;98576.76;1781451;79;24789;-64
2022/02/01 02:36:59;;;;;;;4.70;2.35;;;;;;;-3.06;75.81;98571.69;1778769;79;20934;-65
2022/02/01 02:39:37;;;;;;;6.12;2.45;;;;;;;-3.09;75.82;98575.55;1786548;79;21076;-65
2022/02/01 02:47:13;;;;;;;6.30;2.45;;;;;;;-3.15;76.00;98560.31;1778708;79;20985;-64
2022/02/01 02:49:40;;;;;;;3.25;1.90;;;;;;;-3.15;76.00;98571.80;1776786;79;21052;-64
2022/02/01 02:52:12;;;;;;;4.72;2.70;;;;;;;-3.18;76.04;98571.39;1789829;79;21028;-64
2022/02/01 02:54:39;;;;;;;4.47;1.95;;;;;;;-3.18;76.10;98576.94;1797684;79;21001;-65
2022/02/01 02:57:08;;;;;;;5.67;2.60;;;;;;;-3.17;76.17;98574.79;1774548;80;21980;-64
2022/02/01 02:59:36;;;;;;;7.70;2.90;;;;;;;-3.16;76.24;98579.89;1766777;80;20989;-64
2022/02/01 03:02:04;;;;;;;6.20;2.85;;;;;;;-3.12;76.29;98581.97;1771321;80;21064;-64
2022/02/01 03:04:34;;;;;;;5.12;2.12;;;;;;;-3.07;76.35;98590.44;1764478;80;21052;-64
2022/02/01 03:07:06;;;;;;;7.30;2.45;;;;;;;-3.05;76.33;98587.45;1773289;80;21562;-65
2022/02/01 03:09:39;;;;;;;6.35;2.33;;;;;;;-3.02;76.36;98591.23;1775137;79;21598;-64
2022/02/01 03:12:03;;;;;;;5.92;2.77;;;;;;;-3.01;76.32;98582.70;1762925;80;20951;-65
2022/02/01 03:21:12;;;;;;;5.60;2.15;;;;;;;-2.87;76.54;98595.33;1735678;80;21101;-64
2022/02/01 03:23:39;;;;;;;6.00;2.20;;;;;;;-2.80;76.63;98598.64;1759526;81;21029;-64
2022/02/01 03:26:05;;;;;;;4.95;2.17;;;;;;;-2.73;76.68;98600.28;1747082;80;21487;-64
2022/02/01 03:28:32;;;;;;;4.15;1.87;;;;;;;-2.72;76.57;98596.84;1747148;80;21514;-64
2022/02/01 03:30:59;;;;;;;6.57;2.07;;;;;;;-2.70;76.58;98600.23;1751093;81;21091;-64
2022/02/01 03:33:25;;;;;;;5.50;1.95;;;;;;;-2.68;76.58;98604.91;1743271;81;21073;-64
2022/02/01 03:35:52;;;;;;;6.40;2.52;;;;;;;-2.64;76.71;98593.77;1737592;81;21025;-64
2022/02/01 03:38:19;;;;;;;7.20;2.02;;;;;;;-2.60;76.74;98598.00;1743045;81;21028;-64
2022/02/01 03:40:45;;;;;;;4.97;2.15;;;;;;;-2.57;76.69;98598.39;1747492;81;21033;-64
2022/02/01 03:43:12;;;;;;;5.50;2.20;;;;;;;-2.57;76.67;98595.40;1733068;80;21669;-64
2022/02/01 03:45:39;;;;;;;6.87;1.67;;;;;;;-2.59;76.66;98594.56;1747369;80;21142;-64
2022/02/01 03:48:06;;;;;;;4.73;1.60;;;;;;;-2.62;76.62;98595.88;1755129;80;21025;-64
2022/02/01 03:50:32;;;;;;;5.80;1.82;;;;;;;-2.64;76.63;98596.77;1764173;80;21065;-63
2022/02/01 03:52:59;;;;;;;3.90;1.90;;;;;;;-2.69;76.66;98601.92;1751778;80;21170;-64
2022/02/01 03:55:26;;;;;;;3.87;1.50;;;;;;;-2.72;76.73;98609.62;1746421;81;22032;-64
2022/02/01 03:57:52;;;;;;;5.65;2.27;;;;;;;-2.75;76.79;98617.33;1766716;79;21125;-64
2022/02/01 04:00:19;;;;;;;4.47;2.22;;;;;;;-2.74;76.85;98619.03;1792428;77;21009;-64
2022/02/01 04:02:45;;;;;;;4.83;1.57;;;;;;;-2.75;76.90;98619.88;1806710;79;20985;-64
2022/02/01 04:05:12;;;;;;;6.70;1.90;;;;;;;-2.74;76.98;98624.15;1818706;78;20993;-64
2022/02/01 04:07:45;;;;;;;6.15;2.25;;;;;;;-2.73;77.01;98625.83;1820475;78;21016;-64
2022/02/01 04:10:08;;;;;;;4.35;1.50;;;;;;;-2.70;77.05;98614.29;1814116;77;21101;-63
2022/02/01 04:12:35;;;;;;;3.75;1.72;;;;;;;-2.68;77.02;98608.73;1834530;77;20958;-64
2022/02/01 04:15:02;;;;;;;3.33;1.60;;;;;;;-2.67;77.06;98597.64;1821533;77;21266;-64
2022/02/01 04:17:29;;;;;;;4.65;1.55;;;;;;;-2.65;77.09;98593.37;1785340;78;21061;-64
2022/02/01 04:19:56;;;;;;;4.12;2.08;;;;;;;-2.64;77.08;98605.27;1808370;77;20934;-64
2022/02/01 04:22:28;;;;;;;3.45;2.00;;;;;;;-2.65;77.14;98595.92;1814198;78;21495;-64
2022/02/01 04:24:55;;;;;;;5.62;2.15;;;;;;;-2.63;77.14;98602.28;1770176;80;20930;-65
2022/02/01 04:27:31;;;;;;;3.17;1.75;;;;;;;-2.63;77.15;98601.87;1793409;78;20942;-64
2022/02/01 04:30:09;;;;;;;3.85;1.98;;;;;;;-2.62;77.18;98595.88;1805298;78;21035;-65
2022/02/01 04:32:28;;;;;;;3.60;1.98;;;;;;;-2.60;77.23;98593.32;1802890;78;21559;-65
2022/02/01 04:34:59;;;;;;;7.08;4.03;;;;;;;-2.60;77.26;98591.61;1812870;78;21111;-64
2022/02/01 04:37:23;;;;;;;7.92;3.17;;;;;;;-2.57;77.31;98589.02;1805987;78;21531;-65
2022/02/01 04:39:49;;;;;;;5.03;2.58;;;;;;;-2.57;77.31;98580.50;1815932;78;21057;-64
2022/02/01 04:42:16;;;;;;;4.70;1.97;;;;;;;-2.59;77.33;98575.40;1793511;78;20946;-64
2022/02/01 04:44:43;;;;;;;5.97;1.73;;;;;;;-2.60;77.29;98573.72;1817858;78;21527;-64
2022/02/01 04:47:09;;;;;;;3.85;1.92;;;;;;;-2.62;77.32;98567.77;1778073;79;21070;-64
2022/02/01 04:49:36;;;;;;;4.17;1.75;;;;;;;-2.62;77.37;98560.11;1780598;79;20950;-64
2022/02/01 04:52:03;;;;;;;2.90;1.82;;;;;;;-2.65;77.37;98562.70;1825161;78;20919;-65
2022/02/01 04:54:30;;;;;;;4.05;2.15;;;;;;;-2.67;77.43;98555.92;1791389;78;21514;-64
2022/02/01 04:56:56;;;;;;;4.92;1.90;;;;;;;-2.70;77.36;98551.69;1771290;78;21529;-64
2022/02/01 04:59:23;;;;;;;8.15;2.15;;;;;;;-2.74;77.41;98544.94;1802813;79;21494;-64
2022/02/01 05:01:50;;;;;;;6.87;2.10;;;;;;;-2.80;77.39;98550.10;1793763;78;21062;-64
2022/02/01 05:04:21;;;;;;;5.78;1.90;;;;;;;-2.83;77.51;98547.59;1812982;78;20970;-65
2022/02/01 05:06:53;;;;;;;4.20;1.98;;;;;;;-2.82;77.65;98549.30;1802757;78;20962;-64
2022/02/01 05:09:18;;;;;;;6.72;1.95;;;;;;;-2.81;77.72;98549.70;1773771;79;20886;-65
2022/02/01 05:11:45;;;;;;;5.00;1.93;;;;;;;-2.81;77.75;98550.98;1767607;80;21079;-65
2022/02/01 05:14:19;;;;;;;4.00;2.17;;;;;;;-2.81;77.74;98548.42;1811888;78;21665;-65
2022/02/01 05:16:46;;;;;;;5.95;2.02;;;;;;;-2.78;77.79;98553.49;1803450;78;21123;-64
2022/02/01 05:19:17;;;;;;;4.55;2.35;;;;;;;-2.77;77.77;98552.65;1821600;78;20927;-65
2022/02/01 05:21:42;;;;;;;4.15;2.20;;;;;;;-2.75;77.78;98550.90;1818051;78;20992;-65
2022/02/01 05:24:11;;;;;;;3.92;2.05;;;;;;;-2.72;77.83;98547.02;1800258;78;21983;-64
2022/02/01 05:26:38;;;;;;;5.75;2.12;;;;;;;-2.72;77.78;98545.75;1817202;77;21041;-65
2022/02/01 05:29:05;;;;;;;4.67;2.12;;;;;;;-2.72;77.78;98543.19;1800435;78;21550;-64
2022/02/01 05:31:31;;;;;;;4.75;2.37;;;;;;;-2.71;77.81;98543.63;1818384;78;20999;-64
2022/02/01 05:33:58;;;;;;;5.12;1.87;;;;;;;-2.71;77.83;98543.63;1809955;78;20934;-64
2022/02/01 05:36:25;;;;;;;4.67;2.08;;;;;;;-2.71;77.83;98547.45;1791996;78;22322;-64
2022/02/01 05:38:53;;;;;;;5.23;2.00;;;;;;;-2.71;77.85;98547.45;1828601;78;20914;-64
2022/02/01 05:41:20;;;;;;;4.70;1.98;;;;;;;-2.73;77.80;98551.30;1813843;78;21105;-64
2022/02/01 05:43:47;;;;;;;4.22;1.72;;;;;;;-2.74;77.88;98543.66;1818065;78;21113;-64
2022/02/01 05:46:16;;;;;;;2.98;1.92;;;;;;;-2.73;77.91;98545.34;1798762;78;21068;-64
2022/02/01 05:48:44;;;;;;;9.10;2.35;;;;;;;-2.73;77.96;98541.52;1811669;78;22975;-64
2022/02/01 05:51:10;;;;;;;5.50;2.08;;;;;;;-2.72;77.94;98533.84;1808271;77;22225;-64
2022/02/01 05:53:37;;;;;;;4.33;2.23;;;;;;;-2.71;77.97;98543.63;1816317;77;20981;-64
2022/02/01 05:56:05;;;;;;;4.90;2.33;;;;;;;-2.69;77.99;98541.88;1805781;78;20851;-64
2022/02/01 05:58:31;;;;;;;;;;;;;;;-2.69;78.05;98543.15;1817813;77;20997;-64
2022/02/01 06:00:57;;;;;;;6.92;2.20;;;;;;;-2.68;78.15;98543.58;1804605;78;22202;-64
2022/02/01 06:03:24;;;;;;;6.83;2.58;;;;;;;-2.69;78.13;98545.70;1805633;78;21597;-65
2022/02/01 06:05:51;;;;;;;7.40;2.45;;;;;;;-2.68;78.13;98541.47;1805756;78;20973;-64
2022/02/01 06:08:17;;;;;;;4.62;2.20;;;;;;;-2.70;78.16;98544.02;1816429;76;20899;-64
2022/02/01 06:10:44;;;;;;;6.90;3.43;;;;;;;-2.71;78.21;98544.47;1815039;77;21821;-64
2022/02/01 06:13:10;;;;;;;8.33;3.65;;;;;;;-2.74;78.09;98538.12;1818671;77;21508;-64
2022/02/01 06:15:38;;;;;;;6.20;3.35;;;;;;;-2.78;78.07;98535.61;1824542;77;21008;-65
2022/02/01 06:18:05;;;;;;;8.65;3.17;;;;;;;-2.81;78.13;98538.20;1822852;76;20964;-64
2022/02/01 06:20:32;;;;;;;7.12;2.33;;;;;;;-2.83;78.22;98543.76;1837912;76;21542;-65
2022/02/01 06:22:58;;;;;;;5.10;2.70;;;;;;;-2.83;78.28;98542.48;1808551;76;21028;-65
2022/02/01 06:28:10;;;;;;;12.30;3.35;;;;;;;-2.84;78.39;98545.91;1831012;76;20959;-64
2022/02/01 06:30:36;;;;;;;10.28;3.45;;;;;;;-2.88;78.37;98550.22;1797452;78;21540;-64
2022/02/01 06:33:03;;;;;;;5.30;3.47;;;;;;;-2.86;78.42;98543.80;1801529;78;20965;-65
2022/02/01 06:35:30;;;;;;;8.60;2.83;;;;;;;-2.84;78.57;98546.75;1787103;78;21048;-64
2022/02/01 06:37:57;;;;;;;8.80;3.55;;;;;;;-2.83;78.51;98538.65;1822728;77;21681;-64
2022/02/01 06:40:25;;;;;;;7.05;3.17;;;;;;;-2.83;78.48;98539.92;1777902;78;21050;-64
2022/02/01 06:42:52;;;;;;;;;;;;;;;-2.80;78.54;98536.92;1765777;78;21163;-65
2022/02/01 06:45:19;;;;;;;10.13;3.90;;;;;;;-2.81;78.52;98522.87;1775271;79;20493;-64
2022/02/01 06:47:47;;;;;;;7.42;3.60;;;;;;;-2.84;78.52;98522.92;1825521;78;20951;-64
2022/02/01 06:50:20;;;;;;;8.08;3.60;;;;;;;-2.87;78.49;98520.41;1779261;79;21502;-64
2022/02/01 06:52:56;;;;;;;11.08;3.95;;;;;;;-2.85;78.59;98522.52;1820277;78;20977;-64
2022/02/01 06:55:24;;;;;;;6.53;4.05;;;;;;;-2.88;78.51;98522.56;1786553;78;20943;-64
2022/02/01 06:57:46;;;;;;;12.05;3.70;;;;;;;-2.92;78.49;98521.29;1781771;79;21584;-64
2022/02/01 07:00:14;;;;;;;11.40;3.73;;;;;;;-2.93;78.57;98527.28;1818346;77;20999;-64
2022/02/01 07:02:40;;;;;;;6.50;3.12;;;;;;;-2.96;78.57;98529.87;1823634;77;21934;-64
2022/02/01 07:05:08;;;;;;;7.07;3.10;;;;;;;-2.95;78.75;98528.16;1816030;78;21514;-64
2022/02/01 07:07:35;;;;;;;5.78;3.25;;;;;;;-2.94;78.75;98524.72;1808576;78;21006;-64
2022/02/01 07:10:01;;;;;;;9.28;4.00;;;;;;;-2.93;78.80;98518.34;1806540;78;20946;-64
2022/02/01 07:12:28;;;;;;;7.85;3.72;;;;;;;-2.89;78.84;98511.47;1812915;76;21566;-64
2022/02/01 07:14:55;;;;;;;9.63;4.33;;;;;;;-2.89;78.67;98509.36;1825452;76;21463;-64
2022/02/01 07:17:21;;;;;;;7.60;4.13;;;;;;;-2.90;78.71;98502.56;1820488;76;20957;-64
2022/02/01 07:19:48;;;;;;;12.20;5.45;;;;;;;-2.88;78.72;98509.35;1821139;76;21502;-63
2022/02/01 07:22:15;;;;;;;21.23;6.35;;;;;;;-2.87;78.76;98511.47;1791039;78;21413;-64
2022/02/01 07:24:54;;;;;;;16.13;6.87;;;;;;;-2.82;78.92;98508.42;1815121;78;20950;-64
2022/02/01 07:27:22;;;;;;;17.42;8.30;;;;;;;-2.78;78.87;98515.17;1800456;78;21448;-64
2022/02/01 07:29:39;;;;;;;20.17;8.48;;;;;;;-2.73;79.02;98508.30;1812702;76;22086;-64
2022/02/01 07:32:07;;;;;;;26.55;9.75;;;;;;;-2.59;79.25;98506.40;1789444;79;21019;-64
2022/02/01 07:34:34;;;;;;;16.70;7.53;;;;;;;-2.53;79.14;98501.20;1802330;79;21551;-64
2022/02/01 07:37:01;;;;;;;14.37;7.73;;;;;;;-2.42;79.16;98500.20;1812380;77;21063;-63
2022/02/01 07:39:27;;;;;;;19.75;10.05;;;;;;;-2.36;79.08;98495.00;1818243;78;21065;-64
2022/02/01 07:41:54;;;;;;;23.70;9.28;;;;;;;-2.23;79.29;98485.00;1817282;78;21013;-64
2022/02/01 07:44:20;;;;;;;19.45;9.70;;;;;;;-2.08;79.43;98484.74;1798764;79;20945;-64
2022/02/01 07:46:47;;;;;;;12.45;4.85;;;;;;;-1.96;79.27;98486.69;1810630;78;20962;-64
2022/02/01 07:49:17;;;;;;;14.18;4.35;;;;;;;-1.85;79.26;98487.36;1820264;78;21086;-64
2022/02/01 07:51:45;;;;;;;8.83;3.65;;;;;;;-1.83;79.17;98486.91;1822048;77;21578;-64
2022/02/01 07:54:12;;;;;;;8.18;3.90;;;;;;;-1.82;79.09;98489.86;1822857;76;21037;-64
2022/02/01 07:56:39;;;;;;;6.28;3.00;;;;;;;-1.81;79.09;98494.13;1790936;78;20937;-65
2022/02/01 07:59:06;;;;;;;8.18;3.87;;;;;;;-1.77;79.23;98498.75;1811088;78;21104;-65
2022/02/01 08:01:34;;;;;;;9.73;3.35;;;;;;;-1.71;79.27;98505.91;1789697;78;21000;-64
2022/02/01 08:04:04;;;;;;;9.73;4.45;;;;;;;-1.65;79.30;98505.80;1811099;78;21075;-65
2022/02/01 08:06:35;;;;;;;7.67;3.85;;;;;;;-1.59;79.32;98495.88;1814044;78;21420;-64
2022/02/01 08:09:12;;;;;;;9.30;3.60;;;;;;;-1.48;79.34;98502.09;1788415;79;21083;-64
2022/02/01 08:11:32;;;;;;;8.68;3.55;;;;;;;-1.40;79.35;98484.84;1783158;79;20979;-65
2022/02/01 08:16:43;;;;;;;7.00;3.40;;;;;;;-1.38;79.10;98477.98;1812419;78;21097;-65
2022/02/01 08:21:47;;;;;;;4.85;3.17;;;;;;;-1.31;79.32;98474.45;1676427;83;21105;-63
2022/02/01 08:24:14;;;;;;;;;;;;;;;-1.24;79.37;98474.72;1677404;83;21021;-65
2022/02/01 08:26:46;;;;;;;5.58;2.65;;;;;;;-1.17;79.47;98472.45;1676059;84;20144;-65
2022/02/01 08:29:09;;;;;;;3.77;2.70;;;;;;;-1.09;79.47;98469.75;1680456;83;21144;-65
2022/02/01 08:31:36;;;;;;;6.50;2.93;;;;;;;-1.04;79.43;98464.51;1677025;83;21087;-65
2022/02/01 08:34:03;;;;;;;11.83;4.00;;;;;;;-0.96;79.42;98463.91;1673002;84;21911;-64
2022/02/01 08:36:30;;;;;;;10.60;4.25;;;;;;;-0.89;79.40;98459.08;1688119;83;21636;-65
2022/02/01 08:38:57;;;;;;;10.18;3.85;;;;;;;-0.83;79.40;98453.81;1677939;83;21124;-65
2022/02/01 08:41:25;;;;;;;11.33;4.15;;;;;;;-0.80;79.33;98448.63;1649569;84;22820;-65
2022/02/01 08:43:55;;;;;;;11.10;5.10;;;;;;;-0.86;79.07;98444.92;1672924;83;21146;-65
2022/02/01 08:46:22;;;;;;;15.53;6.33;;;;;;;-0.94;79.08;98442.95;1676299;83;21512;-66
2022/02/01 08:48:49;;;;;;;21.37;6.37;;;;;;;-0.97;79.15;98453.27;1684017;83;21171;-65
2022/02/01 08:51:18;;;;;;;10.05;3.87;;;;;;;-0.95;79.29;98446.41;1668108;84;20988;-65
2022/02/01 08:53:55;;;;;;;9.70;4.72;;;;;;;-0.93;79.34;98444.63;1670657;84;23312;-65
2022/02/01 08:59:01;;;;;;;8.83;3.70;;;;;;;-0.79;79.38;98440.05;1791930;77;21283;-65
2022/02/01 09:01:29;;;;;;;11.00;3.27;;;;;;;-0.53;79.77;98439.48;1792210;77;20977;-65
2022/02/01 09:03:58;;;;;;;7.58;3.17;;;;;;;-0.30;79.76;98435.09;1747519;79;20953;-65
2022/02/01 09:06:25;;;;;;;9.90;2.95;;;;;;;-0.09;79.62;98429.02;1760989;77;21098;-65
2022/02/01 09:08:52;;;;;;;9.65;2.70;;;;;;;0.06;79.49;98428.66;1800539;77;21075;-65
2022/02/01 09:11:19;;;;;;;5.03;3.05;;;;;;;0.17;79.36;98418.95;1789003;77;21011;-65
2022/02/01 09:13:46;;;;;;;7.42;4.03;;;;;;;0.28;79.27;98417.80;1797587;78;21242;-65
2022/02/01 09:16:13;;;;;;;7.62;4.00;;;;;;;0.30;78.89;98416.05;1806471;78;21595;-65
2022/02/01 09:18:40;;;;;;;6.85;3.80;;;;;;;0.32;78.92;98415.13;1806304;77;21497;-66
2022/02/01 09:21:08;;;;;;;9.67;3.70;;;;;;;0.30;78.62;98421.18;1791920;79;20957;-65
2022/02/01 09:23:35;;;;;;;;;;;;;;;0.24;78.40;98418.78;1789108;78;21330;-65
2022/02/01 09:28:00;;;;;;;5.37;2.70;;;;;;;0.26;78.56;98405.47;1823882;76;29380;-63
2022/02/01 09:30:27;;;;;;;7.33;3.10;;;;;;;0.24;78.57;98405.95;1803376;79;21578;-63
2022/02/01 09:32:55;;;;;;;6.40;3.37;;;;;;;0.15;78.20;98401.45;1803385;78;21106;-63
2022/02/01 09:35:22;;;;;;;7.77;2.77;;;;;;;0.03;78.33;98399.64;1803295;78;20935;-63
2022/02/01 09:37:49;;;;;;;6.03;2.55;;;;;;;-0.01;78.40;98395.03;1771951;79;21058;-63
2022/02/01 09:40:15;;;;;;;6.12;2.90;;;;;;;-0.05;78.70;98394.72;1766500;80;27750;-63
2022/02/01 09:42:43;;;;;;;10.33;3.60;;;;;;;0.01;78.92;98394.56;1768161;80;21553;-63
2022/02/01 09:45:11;;;;;;;8.80;3.67;;;;;;;0.12;78.94;98389.98;1752425;81;22603;-64
2022/02/01 09:47:44;;;;;;;7.28;2.65;;;;;;;0.23;78.91;98383.73;1747755;80;20926;-63
2022/02/01 09:50:11;;;;;;;10.32;3.20;;;;;;;0.30;78.78;98382.67;1710454;82;21044;-64
2022/02/01 09:52:39;;;;;;;15.15;3.12;;;;;;;0.36;78.77;98379.93;1737688;81;21768;-64
2022/02/01 09:55:09;;;;;;;5.92;2.72;;;;;;;0.55;79.15;98373.40;1742283;82;21092;-64
2022/02/01 09:57:38;;;;;;;6.65;2.70;;;;;;;0.68;78.79;98367.93;1747335;82;21259;-64
2022/02/01 10:00:17;;;;;;;7.03;3.37;;;;;;;0.54;78.17;98360.62;1744997;80;20989;-64
2022/02/01 10:02:46;;;;;;;9.40;4.28;;;;;;;0.44;78.27;98362.14;1770710;80;21084;-64
2022/02/01 10:06:34;;;;;;;5.78;2.80;;;;;;;0.33;78.34;98360.31;1832505;76;22716;-63
2022/02/01 10:09:08;;;;;;;4.72;2.58;;;;;;;0.17;78.59;98349.64;1812657;78;20930;-63
2022/02/01 10:11:41;;;;;;;10.82;6.12;;;;;;;0.24;79.01;98343.05;1817454;78;20994;-66
2022/02/01 10:14:14;;;;;;;9.98;4.60;;;;;;;0.28;78.99;98333.08;1816645;78;21044;-65
2022/02/01 10:16:49;;;;;;;11.93;4.72;;;;;;;0.39;78.97;98328.48;1814443;78;20957;-66
2022/02/01 10:19:17;;;;;;;10.72;3.10;;;;;;;0.41;78.86;98322.88;1825431;78;21099;-64
2022/02/01 10:21:59;;;;;;;8.50;3.98;;;;;;;0.43;78.72;98327.08;1811740;78;21221;-65
2022/02/01 10:24:37;;;;;;;10.53;3.77;;;;;;;0.39;78.79;98310.52;1812151;78;21777;-65
2022/02/01 10:27:20;;;;;;;6.65;3.45;;;;;;;0.44;78.87;98295.82;1767554;80;20926;-65
2022/02/01 10:30:07;;;;;;;6.20;3.70;;;;;;;0.49;78.84;98286.26;1766200;79;22236;-65
2022/02/01 10:33:31;;;;;;;9.10;4.22;;;;;;;0.48;78.66;98279.45;1774408;79;20977;-64
2022/02/01 10:38:05;;;;;;;10.80;5.22;;;;;;;0.65;78.86;98273.36;1769973;79;21271;-65
2022/02/01 10:40:43;;;;;;;11.03;6.20;;;;;;;0.73;78.80;98274.42;1767664;80;21073;-64
2022/02/01 10:43:22;;;;;;;15.13;5.57;;;;;;;0.71;78.67;98266.36;1761714;81;21413;-65
2022/02/01 10:45:54;;;;;;;13.15;6.00;;;;;;;0.69;78.75;98252.72;1763987;79;21801;-66
2022/02/01 10:48:26;;;;;;;9.98;5.00;;;;;;;0.79;78.99;98245.12;1783006;79;21010;-65
2022/02/01 10:51:15;;;;;;;13.28;6.90;;;;;;;0.91;79.03;98247.30;1744809;81;22316;-65
2022/02/01 10:53:43;;;;;;;11.38;4.80;;;;;;;1.02;78.91;98234.95;1771208;79;20919;-64
2022/02/01 10:56:16;;;;;;;13.05;5.65;;;;;;;1.14;78.80;98243.14;1739603;81;21021;-64
2022/02/01 10:58:45;;;;;;;10.78;5.22;;;;;;;1.20;78.72;98233.94;1747566;81;21050;-66
2022/02/01 11:01:12;;;;;;;10.25;5.42;;;;;;;1.15;78.40;98234.53;1779870;79;21555;-65
2022/02/01 11:03:44;;;;;;;;;;;;;;;1.08;78.50;98230.88;1783117;79;21052;-65
2022/02/01 11:06:14;;;;;;;22.90;12.05;;;;;;;1.02;78.39;98218.69;1769754;80;20100;-65
2022/02/01 11:08:46;;;;;;;10.23;6.00;;;;;;;0.93;78.45;98218.55;1765618;79;21021;-65
2022/02/01 11:11:21;;;;;;;14.28;9.23;;;;;;;0.82;78.39;98209.06;1769115;79;21531;-65
2022/02/01 11:13:50;;;;;;;20.05;9.38;;;;;;;0.69;78.51;98215.47;1766000;79;21618;-65
2022/02/01 11:16:27;;;;;;;11.22;5.50;;;;;;;0.58;78.53;98211.49;1784237;79;21625;-65
2022/02/01 11:19:08;;;;;;;11.15;6.47;;;;;;;0.50;78.55;98212.17;1760392;79;21329;-65
2022/02/01 11:21:52;;;;;;;22.25;10.13;;;;;;;0.49;78.83;98204.08;1758243;79;21506;-64
2022/02/01 11:24:38;;;;;;;22.70;11.05;;;;;;;0.48;78.87;98201.13;1773157;79;21584;-65
2022/02/01 11:27:27;;;;;;;12.68;6.42;;;;;;;0.48;78.81;98194.71;1771677;79;20954;-64
2022/02/01 11:32:35;;;;;;;16.30;8.95;;;;;;;0.40;78.65;98188.97;1783855;79;21096;-66
2022/02/01 11:35:08;;;;;;;10.30;6.17;;;;;;;0.29;78.63;98185.89;1765703;79;20957;-65
2022/02/01 11:37:52;;;;;;;11.80;6.55;;;;;;;0.13;78.57;98177.80;1776347;79;21006;-65
2022/02/01 11:40:20;;;;;;;13.22;6.47;;;;;;;-0.02;78.69;98173.97;1733046;81;21009;-65
2022/02/01 11:43:03;;;;;;;12.07;6.45;;;;;;;-0.15;78.90;98172.63;1735975;81;21483;-65
2022/02/01 11:45:39;;;;;;;14.90;6.80;;;;;;;-0.21;79.03;98166.41;1735421;81;21104;-65
2022/02/01 11:48:36;;;;;;;26.23;8.73;;;;;;;-0.28;79.16;98155.04;1749038;81;20997;-66
2022/02/01 11:51:10;;;;;;;19.95;7.25;;;;;;;-0.32;79.17;98145.73;1735815;81;20961;-66
2022/02/01 11:53:41;;;;;;;18.27;8.53;;;;;;;-0.37;79.26;98142.45;1729511;81;21635;-66
2022/02/01 11:56:12;;;;;;;12.10;7.50;;;;;;;-0.33;79.52;98137.66;1740541;81;21273;-66
2022/02/01 11:58:46;;;;;;;10.23;5.47;;;;;;;-0.31;79.46;98133.33;1737348;81;21167;-65
2022/02/01 12:01:31;;;;;;;12.45;5.62;;;;;;;-0.33;79.48;98133.81;1735129;81;21045;-65
2022/02/01 12:04:10;;;;;;;12.18;6.55;;;;;;;-0.30;79.56;98126.02;1734806;81;21100;-65
2022/02/01 12:06:55;;;;;;;7.97;4.80;;;;;;;-0.23;79.60;98110.84;1735123;81;20942;-65
2022/02/01 12:09:24;;;;;;;12.55;6.58;;;;;;;-0.16;79.64;98117.09;1743961;81;21153;-65
2022/02/01 12:11:55;;;;;;;14.93;7.05;;;;;;;-0.14;79.51;98113.59;1728987;81;21080;-65
2022/02/01 12:14:22;;;;;;;26.77;13.55;;;;;;;-0.20;79.48;98107.79;1746557;81;21037;-65
2022/02/01 12:16:51;;;;;;;15.50;7.63;;;;;;;-0.16;79.60;98097.85;1755292;78;21131;-66
2022/02/01 12:19:50;;;;;;;10.70;6.33;;;;;;;-0.15;79.70;98090.54;1775216;80;21006;-66
2022/02/01 12:22:34;;;;;;;13.62;6.90;;;;;;;-0.11;79.82;98081.85;1753251;79;21315;-65
2022/02/01 12:25:16;;;;;;;9.70;5.47;;;;;;;-0.05;79.93;98077.39;1768131;80;21185;-66
2022/02/01 12:27:44;;;;;;;10.18;4.75;;;;;;;0.08;79.94;98065.00;1776920;79;21020;-66
2022/02/01 12:30:11;;;;;;;;;;;;;;;0.13;79.84;98064.42;1761032;80;20954;-66
2022/02/01 12:32:58;;;;;;;16.93;7.60;;;;;;;0.17;79.84;98051.91;1760024;81;20097;-66
2022/02/01 12:35:34;;;;;;;11.80;6.20;;;;;;;0.19;79.81;98044.97;1718030;82;21479;-66
2022/02/01 12:38:14;;;;;;;11.65;5.72;;;;;;;0.18;79.90;98043.30;1760039;81;21550;-65
2022/02/01 12:40:39;;;;;;;13.68;6.15;;;;;;;0.24;79.92;98035.02;1719874;82;21042;-65
2022/02/01 12:43:18;;;;;;;9.00;5.70;;;;;;;0.34;80.09;98014.58;1753204;81;21084;-65
2022/02/01 12:46:00;;;;;;;20.50;8.03;;;;;;;0.44;80.08;98005.66;1763426;81;21147;-65
2022/02/01 12:48:22;;;;;;;15.03;5.97;;;;;;;0.49;80.12;98002.49;1748414;80;21988;-65
2022/02/01 12:50:58;;;;;;;13.90;5.05;;;;;;;0.48;79.95;97986.70;1747652;81;21538;-64
2022/02/01 12:53:25;;;;;;;10.60;6.12;;;;;;;0.48;80.02;97984.14;1733538;81;21060;-64
2022/02/01 12:55:51;;;;;;;14.13;6.63;;;;;;;0.49;80.01;97978.09;1752521;81;21538;-65
2022/02/01 12:58:22;;;;;;;10.18;4.90;;;;;;;0.49;80.08;97962.69;1746379;81;21078;-64
2022/02/01 13:00:51;;;;;;;10.28;5.22;;;;;;;0.58;80.31;97964.92;1743232;81;21030;-64
2022/02/01 13:03:19;;;;;;;10.18;4.55;;;;;;;0.74;80.36;97957.53;1725888;81;21050;-65
2022/02/01 13:05:45;;;;;;;;;;;;;;;0.75;80.11;97943.78;1719949;82;21092;-65
2022/02/01 13:21:40;;;;;;;11.70;4.97;;;;;;;0.70;80.24;97931.99;1730713;81;21004;-64
2022/02/01 13:24:30;;;;;;;11.93;5.75;;;;;;;0.63;80.18;97932.22;1726293;81;20918;-64
2022/02/01 13:26:57;;;;;;;21.17;8.73;;;;;;;0.54;80.19;97915.86;1699653;84;21243;-64
2022/02/01 13:29:24;;;;;;;10.90;4.95;;;;;;;0.50;80.32;97922.44;1702825;83;21652;-64
2022/02/01 13:31:53;;;;;;;7.33;3.67;;;;;;;0.50;80.46;97920.70;1686383;83;21048;-65
2022/02/01 13:34:30;;;;;;;9.63;4.28;;;;;;;0.50;80.46;97908.31;1695758;84;21057;-65
2022/02/01 13:37:02;;;;;;;6.65;3.62;;;;;;;0.48;80.46;97910.95;1667173;85;21020;-65
2022/02/01 13:39:37;;;;;;;12.88;3.77;;;;;;;0.44;80.52;97908.09;1682306;83;21103;-65